sensor_id;sensor_type;location;lat;lon;timestamp;pressure;altitude;pressure_sealevel;temperature;humidity
28510;BME280;15723;55.684;37.928;2023-01-25T00:00:19;101648.00;;;2.15;64.45
28510;BME280;15723;55.684;37.928;2023-01-25T00:02:45;101643.50;;;2.22;64.18
28510;BME280;15723;55.684;37.928;2023-01-25T00:05:11;101645.28;;;2.20;64.33
28510;BME280;15723;55.684;37.928;2023-01-25T00:07:38;101646.13;;;2.43;63.26
28510;BME280;15723;55.684;37.928;2023-01-25T00:10:04;101644.44;;;2.12;64.03
28510;BME280;15723;55.684;37.928;2023-01-25T00:12:31;101633.75;;;2.03;64.52
28510;BME280;15723;55.684;37.928;2023-01-25T00:14:57;101626.63;;;1.74;65.24
28510;BME280;15723;55.684;37.928;2023-01-25T00:17:23;101627.56;;;1.61;64.73
28510;BME280;15723;55.684;37.928;2023-01-25T00:19:49;101632.03;;;1.59;64.94
28510;BME280;15723;55.684;37.928;2023-01-25T00:22:15;101632.00;;;1.62;65.23
28510;BME280;15723;55.684;37.928;2023-01-25T00:24:42;101631.09;;;1.69;64.56
28510;BME280;15723;55.684;37.928;2023-01-25T00:27:08;101625.75;;;1.39;64.89
28510;BME280;15723;55.684;37.928;2023-01-25T00:29:34;101631.13;;;1.55;65.01
28510;BME280;15723;55.684;37.928;2023-01-25T00:37:41;101637.34;;;1.74;63.41
28510;BME280;15723;55.684;37.928;2023-01-25T00:39:42;101631.09;;;1.17;64.44
28510;BME280;15723;55.684;37.928;2023-01-25T00:42:15;101624.81;;;1.03;63.97
28510;BME280;15723;55.684;37.928;2023-01-25T00:44:44;101621.22;;;0.75;64.91
28510;BME280;15723;55.684;37.928;2023-01-25T00:47:11;101623.94;;;0.95;64.55
28510;BME280;15723;55.684;37.928;2023-01-25T00:49:39;101612.38;;;1.37;63.71
28510;BME280;15723;55.684;37.928;2023-01-25T00:52:06;101614.06;;;0.73;65.41
28510;BME280;15723;55.684;37.928;2023-01-25T00:54:33;101607.94;;;1.12;64.25
28510;BME280;15723;55.684;37.928;2023-01-25T00:56:59;101603.47;;;1.40;63.29
28510;BME280;15723;55.684;37.928;2023-01-25T00:59:26;101604.34;;;1.65;63.16
28510;BME280;15723;55.684;37.928;2023-01-25T01:01:54;101591.84;;;1.86;62.45
28510;BME280;15723;55.684;37.928;2023-01-25T01:04:21;101596.28;;;1.75;62.49
28510;BME280;15723;55.684;37.928;2023-01-25T01:06:54;101595.41;;;1.73;62.80
28510;BME280;15723;55.684;37.928;2023-01-25T01:09:21;101586.47;;;1.86;62.58
28510;BME280;15723;55.684;37.928;2023-01-25T01:11:48;101582.94;;;1.57;62.78
28510;BME280;15723;55.684;37.928;2023-01-25T01:14:17;101585.53;;;2.03;61.92
28510;BME280;15723;55.684;37.928;2023-01-25T01:16:43;101590.91;;;1.98;61.45
28510;BME280;15723;55.684;37.928;2023-01-25T01:19:09;101578.50;;;1.13;62.55
28510;BME280;15723;55.684;37.928;2023-01-25T01:21:36;101579.31;;;1.82;61.76
28510;BME280;15723;55.684;37.928;2023-01-25T01:24:02;101586.50;;;1.68;62.17
28510;BME280;15723;55.684;37.928;2023-01-25T01:26:30;101583.84;;;1.61;62.28
28510;BME280;15723;55.684;37.928;2023-01-25T01:28:58;101586.47;;;1.80;61.69
28510;BME280;15723;55.684;37.928;2023-01-25T01:31:25;101579.38;;;1.60;62.61
28510;BME280;15723;55.684;37.928;2023-01-25T01:34:14;101581.13;;;1.76;62.04
28510;BME280;15723;55.684;37.928;2023-01-25T01:36:41;101573.97;;;1.90;61.90
28510;BME280;15723;55.684;37.928;2023-01-25T01:39:07;101570.41;;;1.90;61.75
28510;BME280;15723;55.684;37.928;2023-01-25T01:41:34;101555.22;;;1.79;62.09
28510;BME280;15723;55.684;37.928;2023-01-25T01:44:01;101553.41;;;1.84;62.38
28510;BME280;15723;55.684;37.928;2023-01-25T01:46:34;101553.41;;;1.84;62.45
28510;BME280;15723;55.684;37.928;2023-01-25T01:49:27;101541.72;;;2.16;61.69
28510;BME280;15723;55.684;37.928;2023-01-25T01:52:12;101545.34;;;2.06;61.67
28510;BME280;15723;55.684;37.928;2023-01-25T01:54:44;101540.94;;;1.90;62.34
28510;BME280;15723;55.684;37.928;2023-01-25T01:57:15;101532.78;;;2.15;62.01
28510;BME280;15723;55.684;37.928;2023-01-25T01:59:43;101548.97;;;1.91;62.23
28510;BME280;15723;55.684;37.928;2023-01-25T02:02:12;101549.00;;;1.74;63.33
28510;BME280;15723;55.684;37.928;2023-01-25T02:04:39;101548.03;;;2.03;62.28
28510;BME280;15723;55.684;37.928;2023-01-25T02:07:35;101538.25;;;1.82;61.81
28510;BME280;15723;55.684;37.928;2023-01-25T02:10:04;101539.97;;;2.06;61.30
28510;BME280;15723;55.684;37.928;2023-01-25T02:12:31;101549.81;;;2.02;61.20
28510;BME280;15723;55.684;37.928;2023-01-25T02:14:59;101548.91;;;2.05;60.89
28510;BME280;15723;55.684;37.928;2023-01-25T02:17:36;101551.63;;;1.99;60.69
28510;BME280;15723;55.684;37.928;2023-01-25T02:25:29;101549.94;;;1.52;62.07
28510;BME280;15723;55.684;37.928;2023-01-25T02:28:04;101553.50;;;1.63;61.91
28510;BME280;15723;55.684;37.928;2023-01-25T02:30:33;101554.44;;;1.13;63.02
28510;BME280;15723;55.684;37.928;2023-01-25T02:32:59;101551.66;;;1.77;62.03
28510;BME280;15723;55.684;37.928;2023-01-25T02:38:11;101558.84;;;1.63;62.37
28510;BME280;15723;55.684;37.928;2023-01-25T02:43:10;101555.31;;;1.49;61.91
28510;BME280;15723;55.684;37.928;2023-01-25T02:45:37;101555.16;;;2.05;60.80
28510;BME280;15723;55.684;37.928;2023-01-25T02:48:03;101557.03;;;1.76;61.83
28510;BME280;15723;55.684;37.928;2023-01-25T02:50:29;101558.84;;;1.42;62.60
28510;BME280;15723;55.684;37.928;2023-01-25T02:52:56;101563.31;;;1.53;62.53
28510;BME280;15723;55.684;37.928;2023-01-25T02:55:22;101563.28;;;1.70;61.73
28510;BME280;15723;55.684;37.928;2023-01-25T02:57:48;101557.00;;;1.93;60.99
28510;BME280;15723;55.684;37.928;2023-01-25T03:00:15;101557.94;;;1.72;61.36
28510;BME280;15723;55.684;37.928;2023-01-25T03:02:43;101559.75;;;1.56;62.39
28510;BME280;15723;55.684;37.928;2023-01-25T03:05:10;101548.06;;;1.94;61.77
28510;BME280;15723;55.684;37.928;2023-01-25T03:07:37;101549.06;;;1.50;62.49
28510;BME280;15723;55.684;37.928;2023-01-25T03:10:04;101555.22;;;1.82;62.01
28510;BME280;15723;55.684;37.928;2023-01-25T03:12:32;101553.47;;;1.69;62.59
28510;BME280;15723;55.684;37.928;2023-01-25T03:14:58;101555.22;;;1.79;62.10
28510;BME280;15723;55.684;37.928;2023-01-25T03:17:25;101549.88;;;1.88;61.87
28510;BME280;15723;55.684;37.928;2023-01-25T03:19:51;101540.03;;;1.92;62.24
28510;BME280;15723;55.684;37.928;2023-01-25T03:22:19;101548.97;;;1.93;62.47
28510;BME280;15723;55.684;37.928;2023-01-25T03:24:45;101545.50;;;1.51;62.93
28510;BME280;15723;55.684;37.928;2023-01-25T03:27:12;101534.63;;;2.03;61.68
28510;BME280;15723;55.684;37.928;2023-01-25T03:30:00;101532.78;;;2.14;61.25
28510;BME280;15723;55.684;37.928;2023-01-25T03:32:46;101539.13;;;1.98;61.79
28510;BME280;15723;55.684;37.928;2023-01-25T03:35:18;101530.19;;;1.97;62.05
28510;BME280;15723;55.684;37.928;2023-01-25T03:37:44;101531.94;;;2.03;62.14
28510;BME280;15723;55.684;37.928;2023-01-25T03:40:12;101531.97;;;1.97;62.16
28510;BME280;15723;55.684;37.928;2023-01-25T03:42:42;101528.50;;;1.64;62.33
28510;BME280;15723;55.684;37.928;2023-01-25T03:45:09;101519.47;;;2.02;61.75
28510;BME280;15723;55.684;37.928;2023-01-25T03:47:37;101519.56;;;1.65;62.94
28510;BME280;15723;55.684;37.928;2023-01-25T03:50:04;101526.72;;;1.60;63.08
28510;BME280;15723;55.684;37.928;2023-01-25T03:52:31;101525.78;;;1.73;62.91
28510;BME280;15723;55.684;37.928;2023-01-25T03:55:04;101532.00;;;1.92;62.42
28510;BME280;15723;55.684;37.928;2023-01-25T03:57:31;101530.13;;;2.11;61.97
28510;BME280;15723;55.684;37.928;2023-01-25T04:00:02;101540.13;;;1.40;63.13
28510;BME280;15723;55.684;37.928;2023-01-25T04:02:41;101518.63;;;1.91;62.36
28510;BME280;15723;55.684;37.928;2023-01-25T04:05:10;101511.44;;;1.97;62.43
28510;BME280;15723;55.684;37.928;2023-01-25T04:07:36;101515.84;;;2.12;62.01
28510;BME280;15723;55.684;37.928;2023-01-25T04:10:04;101515.00;;;1.98;62.17
28510;BME280;15723;55.684;37.928;2023-01-25T04:12:33;101517.63;;;2.13;61.99
28510;BME280;15723;55.684;37.928;2023-01-25T04:14:59;101507.91;;;1.78;62.99
28510;BME280;15723;55.684;37.928;2023-01-25T04:17:26;101508.81;;;1.86;63.02
28510;BME280;15723;55.684;37.928;2023-01-25T04:19:57;101506.13;;;1.91;62.76
28510;BME280;15723;55.684;37.928;2023-01-25T04:22:29;101514.16;;;1.77;62.76
28510;BME280;15723;55.684;37.928;2023-01-25T04:24:56;101509.69;;;1.93;62.80
28510;BME280;15723;55.684;37.928;2023-01-25T04:27:22;101524.06;;;1.55;63.16
28510;BME280;15723;55.684;37.928;2023-01-25T04:30:02;101521.38;;;1.48;63.93
28510;BME280;15723;55.684;37.928;2023-01-25T04:32:29;101525.84;;;1.60;63.30
28510;BME280;15723;55.684;37.928;2023-01-25T04:34:57;101516.81;;;1.94;62.70
28510;BME280;15723;55.684;37.928;2023-01-25T04:37:29;101518.63;;;1.83;63.18
28510;BME280;15723;55.684;37.928;2023-01-25T04:39:58;101517.72;;;1.81;63.13
28510;BME280;15723;55.684;37.928;2023-01-25T04:42:25;101522.22;;;1.74;63.38
28510;BME280;15723;55.684;37.928;2023-01-25T04:44:54;101521.22;;;2.07;62.79
28510;BME280;15723;55.684;37.928;2023-01-25T04:47:21;101530.16;;;2.02;62.75
28510;BME280;15723;55.684;37.928;2023-01-25T04:49:48;101527.53;;;1.85;63.47
28510;BME280;15723;55.684;37.928;2023-01-25T04:52:17;101537.34;;;1.83;63.70
28510;BME280;15723;55.684;37.928;2023-01-25T04:54:43;101530.13;;;2.14;62.68
28510;BME280;15723;55.684;37.928;2023-01-25T04:57:10;101528.19;;;2.43;63.20
28510;BME280;15723;55.684;37.928;2023-01-25T04:59:39;101536.63;;;3.17;61.32
28510;BME280;15723;55.684;37.928;2023-01-25T05:02:06;101532.91;;;3.30;60.44
28510;BME280;15723;55.684;37.928;2023-01-25T05:04:32;101535.97;;;3.84;59.55
28510;BME280;15723;55.684;37.928;2023-01-25T05:06:59;101534.94;;;3.96;58.56
28510;BME280;15723;55.684;37.928;2023-01-25T05:09:26;101533.34;;;4.52;57.65
28510;BME280;15723;55.684;37.928;2023-01-25T05:11:53;101532.28;;;3.93;58.94
28510;BME280;15723;55.684;37.928;2023-01-25T05:14:24;101535.41;;;4.31;57.61
28510;BME280;15723;55.684;37.928;2023-01-25T05:16:51;101536.59;;;4.06;57.97
28510;BME280;15723;55.684;37.928;2023-01-25T05:19:17;101532.63;;;4.37;57.92
28510;BME280;15723;55.684;37.928;2023-01-25T05:21:55;101532.53;;;4.44;57.47
28510;BME280;15723;55.684;37.928;2023-01-25T05:24:31;101527.16;;;4.47;57.03
28510;BME280;15723;55.684;37.928;2023-01-25T05:27:02;101530.88;;;4.35;56.95
28510;BME280;15723;55.684;37.928;2023-01-25T05:29:51;101534.81;;;4.10;58.01
28510;BME280;15723;55.684;37.928;2023-01-25T05:32:21;101532.53;;;4.45;57.24
28510;BME280;15723;55.684;37.928;2023-01-25T05:34:49;101529.56;;;3.97;58.72
28510;BME280;15723;55.684;37.928;2023-01-25T05:37:18;101522.31;;;4.04;58.61
28510;BME280;15723;55.684;37.928;2023-01-25T05:39:46;101531.16;;;4.15;58.15
28510;BME280;15723;55.684;37.928;2023-01-25T05:42:15;101536.53;;;4.15;57.81
28510;BME280;15723;55.684;37.928;2023-01-25T05:44:42;101541.03;;;4.13;57.42
28510;BME280;15723;55.684;37.928;2023-01-25T05:47:12;101544.09;;;4.53;56.45
28510;BME280;15723;55.684;37.928;2023-01-25T05:49:39;101530.16;;;4.22;57.19
28510;BME280;15723;55.684;37.928;2023-01-25T05:52:16;101536.22;;;4.38;56.84
28510;BME280;15723;55.684;37.928;2023-01-25T05:54:43;101535.22;;;4.44;57.08
28510;BME280;15723;55.684;37.928;2023-01-25T05:57:15;101533.03;;;4.73;56.25
28510;BME280;15723;55.684;37.928;2023-01-25T05:59:41;101524.38;;;4.53;56.41
28510;BME280;15723;55.684;37.928;2023-01-25T06:02:10;101509.25;;;4.43;56.27
28510;BME280;15723;55.684;37.928;2023-01-25T06:04:37;101504.53;;;4.60;55.28
28510;BME280;15723;55.684;37.928;2023-01-25T06:07:03;101504.50;;;4.63;55.69
28510;BME280;15723;55.684;37.928;2023-01-25T06:09:31;101506.13;;;4.73;55.04
28510;BME280;15723;55.684;37.928;2023-01-25T06:11:57;101514.25;;;4.70;54.66
28510;BME280;15723;55.684;37.928;2023-01-25T06:14:24;101519.25;;;4.96;54.72
28510;BME280;15723;55.684;37.928;2023-01-25T06:16:51;101522.94;;;4.89;54.51
28510;BME280;15723;55.684;37.928;2023-01-25T06:19:36;101521.25;;;4.83;54.72
28510;BME280;15723;55.684;37.928;2023-01-25T06:22:15;101521.25;;;4.80;54.63
28510;BME280;15723;55.684;37.928;2023-01-25T06:24:42;101518.13;;;4.51;55.41
28510;BME280;15723;55.684;37.928;2023-01-25T06:27:08;101515.50;;;4.48;54.90
28510;BME280;15723;55.684;37.928;2023-01-25T06:29:35;101517.06;;;4.62;54.62
28510;BME280;15723;55.684;37.928;2023-01-25T06:32:02;101509.03;;;4.59;54.80
28510;BME280;15723;55.684;37.928;2023-01-25T06:34:28;101512.91;;;4.98;53.57
28510;BME280;15723;55.684;37.928;2023-01-25T06:36:54;101500.59;;;4.84;54.47
28510;BME280;15723;55.684;37.928;2023-01-25T06:39:20;101505.56;;;5.08;53.25
28510;BME280;15723;55.684;37.928;2023-01-25T06:41:47;101506.44;;;5.10;53.41
28510;BME280;15723;55.684;37.928;2023-01-25T06:44:13;101506.09;;;5.31;53.11
28510;BME280;15723;55.684;37.928;2023-01-25T06:46:39;101502.03;;;5.05;52.96
28510;BME280;15723;55.684;37.928;2023-01-25T06:49:06;101507.47;;;5.03;53.52
28510;BME280;15723;55.684;37.928;2023-01-25T06:51:32;101511.53;;;5.28;53.41
28510;BME280;15723;55.684;37.928;2023-01-25T06:54:02;101507.09;;;5.26;53.08
28510;BME280;15723;55.684;37.928;2023-01-25T06:56:29;101500.28;;;5.02;53.83
28510;BME280;15723;55.684;37.928;2023-01-25T06:58:57;101515.91;;;5.34;52.88
28510;BME280;15723;55.684;37.928;2023-01-25T07:01:24;101507.28;;;5.14;53.32
28510;BME280;15723;55.684;37.928;2023-01-25T07:03:57;101508.22;;;4.54;54.64
28510;BME280;15723;55.684;37.928;2023-01-25T07:06:25;101507.34;;;4.52;54.96
28510;BME280;15723;55.684;37.928;2023-01-25T07:09:04;101513.53;;;4.57;54.94
28510;BME280;15723;55.684;37.928;2023-01-25T07:11:30;101520.22;;;4.29;55.11
28510;BME280;15723;55.684;37.928;2023-01-25T07:13:57;101526.75;;;4.05;56.31
28510;BME280;15723;55.684;37.928;2023-01-25T07:16:23;101523.81;;;4.28;55.96
28510;BME280;15723;55.684;37.928;2023-01-25T07:18:49;101518.84;;;3.94;56.26
28510;BME280;15723;55.684;37.928;2023-01-25T07:21:18;101511.78;;;4.56;55.34
28510;BME280;15723;55.684;37.928;2023-01-25T07:23:47;101525.34;;;4.46;54.95
28510;BME280;15723;55.684;37.928;2023-01-25T07:26:16;101523.97;;;4.79;54.11
28510;BME280;15723;55.684;37.928;2023-01-25T07:28:44;101513.06;;;4.89;53.32
28510;BME280;15723;55.684;37.928;2023-01-25T07:31:10;101509.50;;;4.87;53.10
28510;BME280;15723;55.684;37.928;2023-01-25T07:33:37;101511.00;;;4.45;54.01
28510;BME280;15723;55.684;37.928;2023-01-25T07:36:05;101516.56;;;4.94;53.09
28510;BME280;15723;55.684;37.928;2023-01-25T07:38:32;101516.41;;;5.03;53.45
28510;BME280;15723;55.684;37.928;2023-01-25T07:40:59;101512.75;;;5.08;53.08
28510;BME280;15723;55.684;37.928;2023-01-25T07:43:25;101515.28;;;5.17;52.56
28510;BME280;15723;55.684;37.928;2023-01-25T07:45:52;101513.63;;;5.10;52.43
28510;BME280;15723;55.684;37.928;2023-01-25T07:48:19;101519.41;;;4.87;52.85
28510;BME280;15723;55.684;37.928;2023-01-25T07:50:46;101525.50;;;4.96;52.81
28510;BME280;15723;55.684;37.928;2023-01-25T07:53:15;101514.44;;;5.15;52.58
28510;BME280;15723;55.684;37.928;2023-01-25T07:55:42;101517.75;;;5.32;52.09
28510;BME280;15723;55.684;37.928;2023-01-25T07:58:11;101517.88;;;5.24;51.99
28510;BME280;15723;55.684;37.928;2023-01-25T08:00:37;101524.00;;;5.32;51.97
28510;BME280;15723;55.684;37.928;2023-01-25T08:03:03;101517.59;;;5.40;52.18
28510;BME280;15723;55.684;37.928;2023-01-25T08:05:32;101519.31;;;4.91;53.11
28510;BME280;15723;55.684;37.928;2023-01-25T08:07:58;101514.06;;;4.82;53.66
28510;BME280;15723;55.684;37.928;2023-01-25T08:10:24;101507.72;;;5.40;52.43
28510;BME280;15723;55.684;37.928;2023-01-25T08:12:51;101506.59;;;5.52;51.77
28510;BME280;15723;55.684;37.928;2023-01-25T08:15:17;101510.28;;;5.46;52.15
28510;BME280;15723;55.684;37.928;2023-01-25T08:17:43;101518.88;;;5.17;52.73
28510;BME280;15723;55.684;37.928;2023-01-25T08:20:10;101511.59;;;5.24;52.79
28510;BME280;15723;55.684;37.928;2023-01-25T08:22:37;101508.13;;;5.16;52.25
28510;BME280;15723;55.684;37.928;2023-01-25T08:25:03;101511.63;;;5.22;52.92
28510;BME280;15723;55.684;37.928;2023-01-25T08:27:30;101495.66;;;5.10;52.94
28510;BME280;15723;55.684;37.928;2023-01-25T08:29:56;101508.94;;;5.22;52.57
28510;BME280;15723;55.684;37.928;2023-01-25T08:32:22;101509.03;;;5.16;52.69
28510;BME280;15723;55.684;37.928;2023-01-25T08:34:49;101498.13;;;4.68;53.72
28510;BME280;15723;55.684;37.928;2023-01-25T08:37:15;101498.25;;;4.61;54.34
28510;BME280;15723;55.684;37.928;2023-01-25T08:39:41;101502.78;;;4.57;55.05
28510;BME280;15723;55.684;37.928;2023-01-25T08:42:08;101501.69;;;5.26;53.68
28510;BME280;15723;55.684;37.928;2023-01-25T08:44:34;101502.19;;;4.97;53.41
28510;BME280;15723;55.684;37.928;2023-01-25T08:47:00;101501.94;;;5.11;53.90
28510;BME280;15723;55.684;37.928;2023-01-25T08:49:26;101501.84;;;5.17;52.79
28510;BME280;15723;55.684;37.928;2023-01-25T08:51:53;101498.13;;;5.25;52.98
28510;BME280;15723;55.684;37.928;2023-01-25T08:54:19;101500.88;;;5.22;52.75
28510;BME280;15723;55.684;37.928;2023-01-25T08:56:45;101487.22;;;5.33;53.23
28510;BME280;15723;55.684;37.928;2023-01-25T08:59:12;101495.44;;;5.24;53.09
28510;BME280;15723;55.684;37.928;2023-01-25T09:01:39;101488.56;;;5.55;52.56
28510;BME280;15723;55.684;37.928;2023-01-25T09:04:05;101480.56;;;5.52;52.34
28510;BME280;15723;55.684;37.928;2023-01-25T09:06:32;101471.94;;;5.80;51.89
28510;BME280;15723;55.684;37.928;2023-01-25T09:08:58;101470.53;;;5.60;52.08
28510;BME280;15723;55.684;37.928;2023-01-25T09:11:32;101459.44;;;5.76;52.13
28510;BME280;15723;55.684;37.928;2023-01-25T09:13:59;101462.19;;;5.74;51.97
28510;BME280;15723;55.684;37.928;2023-01-25T09:16:26;101451.94;;;5.47;53.02
28510;BME280;15723;55.684;37.928;2023-01-25T09:18:57;101449.72;;;5.69;52.43
28510;BME280;15723;55.684;37.928;2023-01-25T09:21:24;101445.00;;;5.33;52.93
28510;BME280;15723;55.684;37.928;2023-01-25T09:23:52;101439.28;;;5.02;54.17
28510;BME280;15723;55.684;37.928;2023-01-25T09:26:19;101437.63;;;5.43;52.69
28510;BME280;15723;55.684;37.928;2023-01-25T09:28:48;101431.56;;;5.78;52.19
28510;BME280;15723;55.684;37.928;2023-01-25T09:31:15;101428.97;;;5.74;51.99
28510;BME280;15723;55.684;37.928;2023-01-25T09:34:06;101435.66;;;5.05;53.22
28510;BME280;15723;55.684;37.928;2023-01-25T09:36:33;101430.16;;;5.57;52.22
28510;BME280;15723;55.684;37.928;2023-01-25T09:38:59;101425.66;;;5.59;52.47
28510;BME280;15723;55.684;37.928;2023-01-25T09:41:55;101427.88;;;5.38;52.72
28510;BME280;15723;55.684;37.928;2023-01-25T09:44:45;101413.16;;;5.55;52.02
28510;BME280;15723;55.684;37.928;2023-01-25T09:47:28;101407.66;;;5.61;52.26
28510;BME280;15723;55.684;37.928;2023-01-25T09:55:38;101387.59;;;5.31;54.56
28510;BME280;15723;55.684;37.928;2023-01-25T09:58:13;101388.16;;;5.02;55.47
28510;BME280;15723;55.684;37.928;2023-01-25T10:00:49;101389.47;;;5.28;55.01
28510;BME280;15723;55.684;37.928;2023-01-25T10:03:23;101386.88;;;5.23;55.33
28510;BME280;15723;55.684;37.928;2023-01-25T10:05:54;101380.91;;;5.06;55.84
28510;BME280;15723;55.684;37.928;2023-01-25T10:08:39;101374.25;;;4.76;55.55
28510;BME280;15723;55.684;37.928;2023-01-25T10:11:19;101375.50;;;5.06;56.11
28510;BME280;15723;55.684;37.928;2023-01-25T10:13:47;101376.13;;;5.22;54.81
28510;BME280;15723;55.684;37.928;2023-01-25T10:16:26;101370.34;;;5.42;55.09
28510;BME280;15723;55.684;37.928;2023-01-25T10:21:47;101373.94;;;4.40;56.82
28510;BME280;15723;55.684;37.928;2023-01-25T10:26:57;101358.69;;;4.95;56.12
28510;BME280;15723;55.684;37.928;2023-01-25T10:29:28;101347.38;;;4.75;56.10
28510;BME280;15723;55.684;37.928;2023-01-25T10:34:46;101358.97;;;4.26;57.87
28510;BME280;15723;55.684;37.928;2023-01-25T10:37:15;101359.63;;;4.40;57.18
28510;BME280;15723;55.684;37.928;2023-01-25T10:40:12;101355.84;;;4.53;57.23
28510;BME280;15723;55.684;37.928;2023-01-25T10:42:43;101362.94;;;4.57;56.61
28510;BME280;15723;55.684;37.928;2023-01-25T10:45:12;101366.03;;;4.31;56.90
28510;BME280;15723;55.684;37.928;2023-01-25T10:47:41;101356.75;;;4.52;57.25
28510;BME280;15723;55.684;37.928;2023-01-25T10:50:09;101352.41;;;3.84;58.92
28510;BME280;15723;55.684;37.928;2023-01-25T10:52:58;101357.34;;;4.14;59.47
28510;BME280;15723;55.684;37.928;2023-01-25T10:55:25;101356.25;;;4.27;58.24
28510;BME280;15723;55.684;37.928;2023-01-25T10:57:56;101353.25;;;3.87;57.86
28510;BME280;15723;55.684;37.928;2023-01-25T11:03:00;101343.78;;;4.22;57.66
28510;BME280;15723;55.684;37.928;2023-01-25T11:05:32;101335.34;;;3.88;57.77
28510;BME280;15723;55.684;37.928;2023-01-25T11:10:45;101328.88;;;4.56;56.72
28510;BME280;15723;55.684;37.928;2023-01-25T11:15:49;101326.84;;;4.69;55.55
28510;BME280;15723;55.684;37.928;2023-01-25T11:18:28;101321.16;;;4.87;54.75
28510;BME280;15723;55.684;37.928;2023-01-25T11:21:11;101329.53;;;4.18;55.01
28510;BME280;15723;55.684;37.928;2023-01-25T11:23:39;101319.91;;;4.57;55.95
28510;BME280;15723;55.684;37.928;2023-01-25T11:26:17;101317.31;;;4.51;55.19
28510;BME280;15723;55.684;37.928;2023-01-25T11:28:45;101309.97;;;4.61;55.20
28510;BME280;15723;55.684;37.928;2023-01-25T11:31:21;101308.16;;;4.63;55.98
28510;BME280;15723;55.684;37.928;2023-01-25T11:33:47;101302.19;;;4.44;55.21
28510;BME280;15723;55.684;37.928;2023-01-25T11:45:07;101292.66;;;4.25;55.45
28510;BME280;15723;55.684;37.928;2023-01-25T11:48:25;101281.28;;;4.09;55.66
28510;BME280;15723;55.684;37.928;2023-01-25T11:50:40;101282.50;;;4.42;54.99
28510;BME280;15723;55.684;37.928;2023-01-25T11:59:08;101269.50;;;4.67;54.90
28510;BME280;15723;55.684;37.928;2023-01-25T12:07:03;101279.91;;;4.37;54.42
28510;BME280;15723;55.684;37.928;2023-01-25T12:20:59;101271.09;;;4.29;54.18
28510;BME280;15723;55.684;37.928;2023-01-25T12:23:47;101273.44;;;4.49;53.61
28510;BME280;15723;55.684;37.928;2023-01-25T12:27:08;101279.56;;;5.03;53.30
28510;BME280;15723;55.684;37.928;2023-01-25T12:32:45;101282.63;;;4.34;53.88
28510;BME280;15723;55.684;37.928;2023-01-25T12:35:35;101275.41;;;4.38;54.60
28510;BME280;15723;55.684;37.928;2023-01-25T12:38:07;101273.00;;;4.72;53.06
28510;BME280;15723;55.684;37.928;2023-01-25T12:40:50;101258.53;;;4.78;53.84
28510;BME280;15723;55.684;37.928;2023-01-25T12:43:23;101251.34;;;4.78;52.90
28510;BME280;15723;55.684;37.928;2023-01-25T12:45:52;101265.13;;;4.61;54.11
28510;BME280;15723;55.684;37.928;2023-01-25T12:48:24;101250.75;;;5.09;52.89
28510;BME280;15723;55.684;37.928;2023-01-25T12:50:56;101251.09;;;4.44;53.42
28510;BME280;15723;55.684;37.928;2023-01-25T12:53:26;101239.00;;;4.68;53.02
28510;BME280;15723;55.684;37.928;2023-01-25T12:55:55;101244.66;;;4.54;53.10
28510;BME280;15723;55.684;37.928;2023-01-25T12:58:43;101247.84;;;4.27;53.66
28510;BME280;15723;55.684;37.928;2023-01-25T13:04:33;101240.34;;;4.92;52.04
28510;BME280;15723;55.684;37.928;2023-01-25T13:07:17;101236.81;;;4.40;53.64
28510;BME280;15723;55.684;37.928;2023-01-25T13:12:58;101235.88;;;4.43;53.40
28510;BME280;15723;55.684;37.928;2023-01-25T13:15:48;101238.97;;;4.22;54.11
28510;BME280;15723;55.684;37.928;2023-01-25T13:20:55;101231.56;;;4.34;54.42
28510;BME280;15723;55.684;37.928;2023-01-25T13:23:42;101231.00;;;4.17;54.49
28510;BME280;15723;55.684;37.928;2023-01-25T13:26:37;101238.56;;;3.92;55.10
28510;BME280;15723;55.684;37.928;2023-01-25T13:29:12;101223.94;;;4.10;54.06
28510;BME280;15723;55.684;37.928;2023-01-25T13:31:50;101230.19;;;4.12;54.46
28510;BME280;15723;55.684;37.928;2023-01-25T13:37:01;101220.38;;;4.10;54.17
28510;BME280;15723;55.684;37.928;2023-01-25T13:44:31;101187.91;;;4.20;54.38
28510;BME280;15723;55.684;37.928;2023-01-25T13:47:02;101181.78;;;4.14;54.28
28510;BME280;15723;55.684;37.928;2023-01-25T13:52:21;101187.06;;;4.18;55.81
28510;BME280;15723;55.684;37.928;2023-01-25T13:54:49;101195.56;;;3.92;55.92
28510;BME280;15723;55.684;37.928;2023-01-25T13:57:21;101187.44;;;3.97;55.41
28510;BME280;15723;55.684;37.928;2023-01-25T14:00:06;101170.19;;;4.08;55.62
28510;BME280;15723;55.684;37.928;2023-01-25T14:02:37;101180.09;;;4.06;55.47
28510;BME280;15723;55.684;37.928;2023-01-25T14:05:21;101161.44;;;3.97;55.04
28510;BME280;15723;55.684;37.928;2023-01-25T14:07:51;101170.75;;;2.49;58.31
28510;BME280;15723;55.684;37.928;2023-01-25T14:10:21;101163.53;;;2.54;58.83
28510;BME280;15723;55.684;37.928;2023-01-25T14:12:50;101164.59;;;2.41;60.63
28510;BME280;15723;55.684;37.928;2023-01-25T14:15:23;101158.72;;;2.05;61.27
28510;BME280;15723;55.684;37.928;2023-01-25T14:18:16;101157.31;;;1.63;62.67
28510;BME280;15723;55.684;37.928;2023-01-25T14:20:45;101145.84;;;1.46;62.70
28510;BME280;15723;55.684;37.928;2023-01-25T14:23:29;101146.47;;;1.77;62.40
28510;BME280;15723;55.684;37.928;2023-01-25T14:25:59;101140.34;;;1.64;63.11
28510;BME280;15723;55.684;37.928;2023-01-25T14:28:28;101144.13;;;1.37;64.15
28510;BME280;15723;55.684;37.928;2023-01-25T14:30:58;101149.34;;;1.55;62.77
28510;BME280;15723;55.684;37.928;2023-01-25T14:33:27;101144.13;;;1.39;63.17
28510;BME280;15723;55.684;37.928;2023-01-25T14:36:01;101128.78;;;1.62;63.45
28510;BME280;15723;55.684;37.928;2023-01-25T14:38:29;101127.09;;;1.46;64.46